createdAt,value
2022-08-30T00:00:52.531Z,52.8
2022-08-30T00:02:35.876Z,52.8
2022-08-30T00:06:02.364Z,52.8
2022-08-30T00:07:45.750Z,52.8
2022-08-30T00:09:29.138Z,52.8
2022-08-30T00:11:12.536Z,52.8
2022-08-30T00:12:55.943Z,52.8
2022-08-30T00:14:39.344Z,52.8
2022-08-30T00:16:22.732Z,52.8
2022-08-30T00:21:31.981Z,52.8
2022-08-30T00:23:15.391Z,52.8
2022-08-30T00:24:58.778Z,52.8
2022-08-30T00:26:42.170Z,52.8
2022-08-30T00:28:25.568Z,52.8
2022-08-30T00:30:08.954Z,52.8
2022-08-30T00:31:52.362Z,52.8
2022-08-30T00:35:18.830Z,52.8
2022-08-30T00:37:02.226Z,52.8
2022-08-30T00:38:45.623Z,52.8
2022-08-30T00:40:29.018Z,52.7
2022-08-30T00:42:12.434Z,52.7
2022-08-30T00:43:55.810Z,52.8
2022-08-30T00:45:39.209Z,52.8
2022-08-30T00:50:48.444Z,52.7
2022-08-30T00:52:31.847Z,52.7
2022-08-30T00:54:15.244Z,52.8
2022-08-30T00:55:58.630Z,52.7
2022-08-30T00:57:42.024Z,52.8
2022-08-30T00:59:25.413Z,52.7
2022-08-30T01:01:08.810Z,52.7
2022-08-30T01:04:35.293Z,52.7
2022-08-30T01:06:18.679Z,52.7
2022-08-30T01:08:02.105Z,52.7
2022-08-30T01:09:45.481Z,52.7
2022-08-30T01:11:28.865Z,52.7
2022-08-30T01:13:12.282Z,52.7
2022-08-30T01:14:55.703Z,52.7
2022-08-30T01:16:39.068Z,52.7
2022-08-30T01:18:22.765Z,52.7
2022-08-30T01:20:06.170Z,52.7
2022-08-30T01:21:49.563Z,52.7
2022-08-30T01:23:32.978Z,52.7
2022-08-30T01:25:16.343Z,52.7
2022-08-30T01:26:59.747Z,52.7
2022-08-30T01:28:43.135Z,52.7
2022-08-30T01:33:52.392Z,52.7
2022-08-30T01:35:35.789Z,52.7
2022-08-30T01:37:19.190Z,52.7
2022-08-30T01:39:02.580Z,52.7
2022-08-30T01:40:45.974Z,52.7
2022-08-30T01:42:29.380Z,52.7
2022-08-30T01:44:12.765Z,52.6
2022-08-30T01:49:22.020Z,52.7
2022-08-30T01:51:05.404Z,52.7
2022-08-30T01:52:48.807Z,52.7
2022-08-30T01:54:32.210Z,52.7
2022-08-30T01:56:15.601Z,52.7
2022-08-30T01:57:58.997Z,52.7
2022-08-30T01:59:42.397Z,52.7
2022-08-30T02:03:08.863Z,52.7
2022-08-30T02:04:52.266Z,52.7
2022-08-30T02:06:35.652Z,52.7
2022-08-30T02:08:19.052Z,52.7
2022-08-30T02:10:02.452Z,52.7
2022-08-30T02:11:45.847Z,52.7
2022-08-30T02:13:29.244Z,52.6
2022-08-30T02:18:38.477Z,52.7
2022-08-30T02:20:21.887Z,52.7
2022-08-30T02:22:05.285Z,52.7
2022-08-30T02:23:48.676Z,52.7
2022-08-30T02:25:32.077Z,52.7
2022-08-30T02:27:15.465Z,52.6
2022-08-30T02:28:58.863Z,52.7
2022-08-30T02:34:08.102Z,52.7
2022-08-30T02:35:51.502Z,52.7
2022-08-30T02:37:34.899Z,52.6
2022-08-30T02:39:18.278Z,52.6
2022-08-30T02:41:01.696Z,52.6
2022-08-30T02:42:45.104Z,52.7
2022-08-30T02:44:28.475Z,52.6
2022-08-30T02:49:37.720Z,52.7
2022-08-30T02:51:21.123Z,52.7
2022-08-30T02:53:04.507Z,52.7
2022-08-30T02:54:47.908Z,52.6
2022-08-30T02:56:31.312Z,52.6
2022-08-30T02:58:14.712Z,52.7
2022-08-30T02:59:58.106Z,52.6
2022-08-30T03:03:24.573Z,52.7
2022-08-30T03:05:07.975Z,52.6
2022-08-30T03:06:51.363Z,52.6
2022-08-30T03:08:34.765Z,52.6
2022-08-30T03:10:18.166Z,52.6
2022-08-30T03:12:01.557Z,52.6
2022-08-30T03:13:44.950Z,52.6
2022-08-30T03:15:28.359Z,52.6
2022-08-30T03:17:12.082Z,52.6
2022-08-30T03:18:55.441Z,52.6
2022-08-30T03:20:38.847Z,52.6
2022-08-30T03:22:22.267Z,52.6
2022-08-30T03:24:05.636Z,52.6
2022-08-30T03:25:49.025Z,52.6
2022-08-30T03:27:32.440Z,52.6
2022-08-30T03:32:41.680Z,52.6
2022-08-30T03:34:25.061Z,52.6
2022-08-30T03:36:08.468Z,52.6
2022-08-30T03:37:51.867Z,52.6
2022-08-30T03:39:35.265Z,52.6
2022-08-30T03:41:18.648Z,52.6
2022-08-30T03:43:02.048Z,52.6
2022-08-30T03:48:11.281Z,52.6
2022-08-30T03:49:54.676Z,52.6
2022-08-30T03:51:38.107Z,52.6
2022-08-30T03:53:21.478Z,52.6
2022-08-30T03:55:04.878Z,52.6
2022-08-30T03:56:48.267Z,52.6
2022-08-30T03:58:31.666Z,52.6
2022-08-30T04:00:15.073Z,52.6
2022-08-30T04:01:58.765Z,52.6
2022-08-30T04:03:42.162Z,52.6
2022-08-30T04:05:25.563Z,52.6
2022-08-30T04:07:08.951Z,52.6
2022-08-30T04:08:52.360Z,52.6
2022-08-30T04:10:35.759Z,52.6
2022-08-30T04:12:19.138Z,52.6
2022-08-30T04:14:02.612Z,52.6
2022-08-30T04:15:46.250Z,52.5
2022-08-30T04:17:29.646Z,52.5
2022-08-30T04:19:13.042Z,52.6
2022-08-30T04:20:56.438Z,52.5
2022-08-30T04:22:39.837Z,52.5
2022-08-30T04:24:23.235Z,52.5
2022-08-30T04:26:06.622Z,52.5
2022-08-30T04:27:50.021Z,52.5
2022-08-30T04:31:16.495Z,52.5
2022-08-30T04:32:59.882Z,52.5
2022-08-30T04:34:43.288Z,52.5
2022-08-30T04:36:26.683Z,52.5
2022-08-30T04:38:10.080Z,52.5
2022-08-30T04:39:53.469Z,52.5
2022-08-30T04:41:36.881Z,52.5
2022-08-30T04:46:46.115Z,52.5
2022-08-30T04:48:29.525Z,52.5
2022-08-30T04:50:12.898Z,52.5
2022-08-30T04:51:56.293Z,52.5
2022-08-30T04:53:39.697Z,52.5
2022-08-30T04:55:23.083Z,52.5
2022-08-30T04:57:06.486Z,52.5
2022-08-30T04:58:49.888Z,52.5
2022-08-30T05:00:33.601Z,52.5
2022-08-30T05:04:00.384Z,52.5
2022-08-30T05:05:43.771Z,52.5
2022-08-30T05:07:27.186Z,52.5
2022-08-30T05:09:10.578Z,52.5
2022-08-30T05:10:53.952Z,52.5
2022-08-30T05:12:37.362Z,52.5
2022-08-30T05:16:03.826Z,52.5
2022-08-30T05:17:47.226Z,52.5
2022-08-30T05:19:30.633Z,52.4
2022-08-30T05:21:14.032Z,52.4
2022-08-30T05:22:57.423Z,52.4
2022-08-30T05:26:24.209Z,52.4
2022-08-30T05:28:07.608Z,52.4
2022-08-30T05:29:51.318Z,52.4
2022-08-30T05:31:34.723Z,52.4
2022-08-30T05:33:18.107Z,52.4
2022-08-30T05:35:01.510Z,52.4
2022-08-30T05:36:44.901Z,52.4
2022-08-30T05:38:28.289Z,52.4
2022-08-30T05:40:11.689Z,52.3
2022-08-30T05:41:55.087Z,52.4
2022-08-30T05:45:21.549Z,52.5
2022-08-30T05:47:04.984Z,52.4
2022-08-30T05:50:31.741Z,52.6
2022-08-30T05:52:15.147Z,52.5
2022-08-30T05:53:58.553Z,52.5
2022-08-30T05:55:41.930Z,52.7
2022-08-30T06:00:51.173Z,52.5
2022-08-30T06:04:17.964Z,52.6
2022-08-30T06:06:01.400Z,52.6
2022-08-30T06:07:44.757Z,52.6
2022-08-30T06:09:28.166Z,52.6
2022-08-30T06:11:11.556Z,52.7
2022-08-30T06:16:20.794Z,52.7
2022-08-30T06:18:04.237Z,52.6
2022-08-30T06:19:47.591Z,52.5
2022-08-30T06:21:31.047Z,52.4
2022-08-30T06:23:14.443Z,52.4
2022-08-30T06:24:57.800Z,52.4
2022-08-30T06:26:41.181Z,52.3
2022-08-30T06:28:24.619Z,52.2
2022-08-30T06:30:08.332Z,52.3
2022-08-30T06:31:51.681Z,52.3
2022-08-30T06:33:35.110Z,52.4
2022-08-30T06:35:18.465Z,52.4
2022-08-30T06:37:01.849Z,52.4
2022-08-30T06:38:45.263Z,52.3
2022-08-30T06:40:28.658Z,52.5
2022-08-30T06:42:12.062Z,52.4
2022-08-30T06:43:55.737Z,52.6
2022-08-30T06:45:39.144Z,52.7
2022-08-30T06:47:22.538Z,52.6
2022-08-30T06:49:05.943Z,52.5
2022-08-30T06:50:49.330Z,52.5
2022-08-30T06:52:32.728Z,52.4
2022-08-30T06:54:16.122Z,52.4
2022-08-30T06:55:59.520Z,52.5
2022-08-30T06:59:25.986Z,52.3
2022-08-30T07:01:09.392Z,52.2
2022-08-30T07:02:52.795Z,52.2
2022-08-30T07:04:36.186Z,52.2
2022-08-30T07:06:19.585Z,52.3
2022-08-30T07:08:02.991Z,52.3
2022-08-30T07:09:46.367Z,52.2
2022-08-30T07:13:12.848Z,52.1
2022-08-30T07:14:56.243Z,52.1
2022-08-30T07:18:23.045Z,52.2
2022-08-30T07:20:06.480Z,52.1
2022-08-30T07:21:49.823Z,52.1
2022-08-30T07:23:33.226Z,52.1
2022-08-30T07:25:16.625Z,52.3
2022-08-30T07:27:00.319Z,52.1
2022-08-30T07:28:43.728Z,51.9
2022-08-30T07:30:27.113Z,52
2022-08-30T07:32:10.509Z,52
2022-08-30T07:33:53.907Z,52
2022-08-30T07:35:37.296Z,52.1
2022-08-30T07:37:20.699Z,52.2
2022-08-30T07:39:04.088Z,52.1
2022-08-30T07:40:47.793Z,52
2022-08-30T07:42:31.211Z,52
2022-08-30T07:44:14.602Z,52
2022-08-30T07:45:57.996Z,52
2022-08-30T07:47:41.396Z,52
2022-08-30T07:49:24.789Z,52.2
2022-08-30T07:51:08.190Z,52.2
2022-08-30T07:56:17.427Z,52.4
2022-08-30T07:58:00.842Z,52.3
2022-08-30T07:59:44.208Z,52.3
2022-08-30T08:01:27.636Z,52.3
2022-08-30T08:03:11.015Z,52.4
2022-08-30T08:04:54.439Z,52.4
2022-08-30T08:06:37.808Z,52.4
2022-08-30T08:10:04.280Z,52.6
2022-08-30T08:11:47.671Z,52.6
2022-08-30T08:13:31.064Z,53
2022-08-30T08:15:14.475Z,53.4
2022-08-30T08:16:57.870Z,53.4
2022-08-30T08:18:41.282Z,53.5
2022-08-30T08:20:24.665Z,53.5
2022-08-30T08:25:33.886Z,53.5
2022-08-30T08:27:17.309Z,53.3
2022-08-30T08:29:00.709Z,53.3
2022-08-30T08:30:44.095Z,53.3
2022-08-30T08:32:27.493Z,53.3
2022-08-30T08:34:10.877Z,53.1
2022-08-30T08:35:54.300Z,53
2022-08-30T08:39:20.745Z,53
2022-08-30T08:41:04.154Z,53
2022-08-30T08:42:47.543Z,53.3
2022-08-30T08:44:30.953Z,53.5
2022-08-30T08:46:14.331Z,53.3
2022-08-30T08:47:57.739Z,53.2
2022-08-30T08:49:41.128Z,53.2
2022-08-30T08:51:24.521Z,53.2
2022-08-30T08:53:08.238Z,53.2
2022-08-30T08:54:51.646Z,53.2
2022-08-30T08:56:35.035Z,53.2
2022-08-30T08:58:18.422Z,53.2
2022-08-30T09:00:01.814Z,53.2
2022-08-30T09:01:45.218Z,53.2
2022-08-30T09:03:28.621Z,53.2
2022-08-30T09:05:12.009Z,53.3
2022-08-30T09:06:55.708Z,53.2
2022-08-30T09:08:39.119Z,53.2
2022-08-30T09:10:22.509Z,53.2
2022-08-30T09:12:05.893Z,53.2
2022-08-30T09:13:49.368Z,53.2
2022-08-30T09:15:32.698Z,53.2
2022-08-30T09:17:16.120Z,53.2
2022-08-30T09:18:59.484Z,53.2
2022-08-30T09:20:43.259Z,53.2
2022-08-30T09:22:26.615Z,53.2
2022-08-30T09:24:10.016Z,53.2
2022-08-30T09:25:53.436Z,53.2
2022-08-30T09:27:36.796Z,53.2
2022-08-30T09:29:20.225Z,53.2
2022-08-30T09:31:03.580Z,53.2
2022-08-30T09:32:46.992Z,53.2
2022-08-30T09:34:30.724Z,53.2
2022-08-30T09:36:14.131Z,53.2
2022-08-30T09:37:57.510Z,53.2
2022-08-30T09:39:40.875Z,53.3
2022-08-30T09:41:24.315Z,53.3
2022-08-30T09:43:07.694Z,53.3
2022-08-30T09:44:51.093Z,53.3
2022-08-30T09:46:34.509Z,53.3
2022-08-30T09:48:18.190Z,53.3
2022-08-30T09:50:01.604Z,53.3
2022-08-30T09:51:44.988Z,53.2
2022-08-30T09:53:28.379Z,53.2
2022-08-30T09:55:11.794Z,53.3
2022-08-30T09:56:55.160Z,53.3
2022-08-30T09:58:38.556Z,53.3
2022-08-30T10:00:21.953Z,53.3
2022-08-30T10:03:48.432Z,53.3
2022-08-30T10:05:31.816Z,53.5
2022-08-30T10:07:15.214Z,53.5
2022-08-30T10:08:58.632Z,53.4
2022-08-30T10:10:42.039Z,53.5
2022-08-30T10:12:25.393Z,53.4
2022-08-30T10:14:08.821Z,53.5
2022-08-30T10:21:01.474Z,53.6
2022-08-30T10:22:44.881Z,53.6
2022-08-30T10:24:28.267Z,53.6
2022-08-30T10:26:11.660Z,53.6
2022-08-30T10:27:55.062Z,53.7
2022-08-30T10:29:38.449Z,53.6
2022-08-30T10:31:21.871Z,53.6
2022-08-30T10:33:05.541Z,53.6
2022-08-30T10:34:48.978Z,53.6
2022-08-30T10:36:32.354Z,53.7
2022-08-30T10:38:15.727Z,53.6
2022-08-30T10:39:59.128Z,53.5
2022-08-30T10:41:42.544Z,53.4
2022-08-30T10:43:25.910Z,53.6
2022-08-30T10:45:09.314Z,53.8
2022-08-30T10:46:53.005Z,53.8
2022-08-30T10:48:36.482Z,54
2022-08-30T10:50:19.824Z,53.9
2022-08-30T10:52:03.211Z,54
2022-08-30T10:53:46.592Z,54
2022-08-30T10:57:13.391Z,53.6
2022-08-30T10:58:56.844Z,53.6
2022-08-30T11:02:23.316Z,53.5
2022-08-30T11:04:06.665Z,53.4
2022-08-30T11:05:50.076Z,53.4
2022-08-30T11:07:33.490Z,53.4
2022-08-30T11:09:16.873Z,53.4
2022-08-30T11:11:00.258Z,53.5
2022-08-30T11:12:43.672Z,53.6
2022-08-30T11:14:27.082Z,53.7
2022-08-30T11:17:53.552Z,53.7
2022-08-30T11:19:36.945Z,53.9
2022-08-30T11:21:20.355Z,54.1
2022-08-30T11:23:03.738Z,53.9
2022-08-30T11:24:47.107Z,53.8
2022-08-30T11:26:30.494Z,53.9
2022-08-30T11:28:13.917Z,54
2022-08-30T11:29:57.337Z,53.9
2022-08-30T11:31:40.994Z,53.9
2022-08-30T11:33:24.446Z,53.9
2022-08-30T11:35:07.812Z,54
2022-08-30T11:36:51.177Z,54
2022-08-30T11:38:34.594Z,53.9
2022-08-30T11:40:18.010Z,53.8
2022-08-30T11:42:01.379Z,54
2022-08-30T11:43:44.811Z,54.2
2022-08-30T11:47:11.274Z,54.3
2022-08-30T11:48:54.698Z,54.4
2022-08-30T11:50:38.084Z,54.6
2022-08-30T11:52:21.445Z,54.7
2022-08-30T11:54:04.848Z,54.6
2022-08-30T11:55:48.242Z,54.4
2022-08-30T11:57:31.633Z,54.5
2022-08-30T12:02:40.904Z,54.5
2022-08-30T12:04:24.301Z,54.4
2022-08-30T12:06:07.704Z,54.5
2022-08-30T12:07:51.096Z,54.6
2022-08-30T12:09:34.493Z,54.6
2022-08-30T12:11:17.842Z,54.3
2022-08-30T12:13:01.273Z,54.3
2022-08-30T12:16:27.772Z,54.1
2022-08-30T12:18:11.171Z,54
2022-08-30T12:19:54.560Z,53.9
2022-08-30T12:21:37.918Z,53.9
2022-08-30T12:23:21.337Z,53.9
2022-08-30T12:25:04.726Z,53.9
2022-08-30T12:26:48.091Z,53.9
2022-08-30T12:31:57.337Z,52.9
2022-08-30T12:33:40.766Z,52.7
2022-08-30T12:35:24.145Z,52.4
2022-08-30T12:37:07.530Z,52.8
2022-08-30T12:38:50.931Z,52.5
2022-08-30T12:40:34.351Z,52.5
2022-08-30T12:42:17.735Z,52.6
2022-08-30T12:44:01.138Z,52.7
2022-08-30T12:45:44.871Z,52.3
2022-08-30T12:47:28.256Z,52.5
2022-08-30T12:49:11.660Z,52.5
2022-08-30T12:50:55.062Z,52.3
2022-08-30T12:52:38.421Z,52.5
2022-08-30T12:54:21.859Z,52.7
2022-08-30T12:56:05.253Z,52.6
2022-08-30T12:57:48.651Z,52.6
2022-08-30T13:01:15.074Z,52.8
2022-08-30T13:02:58.483Z,52.8
2022-08-30T13:04:41.871Z,52.8
2022-08-30T13:06:25.308Z,52.8
2022-08-30T13:08:08.663Z,52.9
2022-08-30T13:09:52.069Z,53
2022-08-30T13:11:35.480Z,53
2022-08-30T13:16:44.738Z,53
2022-08-30T13:18:28.148Z,52.9
2022-08-30T13:20:11.557Z,52.7
2022-08-30T13:21:54.942Z,52.7
2022-08-30T13:23:38.333Z,52.8
2022-08-30T13:25:21.699Z,52.8
2022-08-30T13:27:05.074Z,52.7
2022-08-30T13:32:14.352Z,52.7
2022-08-30T13:33:57.735Z,52.7
2022-08-30T13:35:41.135Z,52.6
2022-08-30T13:37:24.532Z,52.6
2022-08-30T13:39:07.921Z,52.6
2022-08-30T13:40:51.327Z,52.7
2022-08-30T13:42:34.711Z,52.7
2022-08-30T13:46:01.191Z,52.7
2022-08-30T13:47:44.584Z,52.7
2022-08-30T13:49:27.987Z,52.7
2022-08-30T13:51:11.402Z,52.7
2022-08-30T13:52:54.781Z,52.7
2022-08-30T13:54:38.168Z,52.7
2022-08-30T13:56:21.567Z,52.8
2022-08-30T13:58:04.969Z,52.8
2022-08-30T14:01:31.443Z,52.9
2022-08-30T14:03:14.857Z,53
2022-08-30T14:04:58.234Z,53
2022-08-30T14:06:41.634Z,53
2022-08-30T14:08:25.018Z,53
2022-08-30T14:10:08.432Z,53
2022-08-30T14:11:51.821Z,53
2022-08-30T14:13:35.212Z,53.1
2022-08-30T14:15:18.915Z,53.1
2022-08-30T14:17:02.335Z,53.2
2022-08-30T14:18:45.718Z,53.1
2022-08-30T14:20:29.120Z,53.2
2022-08-30T14:22:12.528Z,53.1
2022-08-30T14:23:55.924Z,53.3
2022-08-30T14:25:39.308Z,53.6
2022-08-30T14:27:22.723Z,53.6
2022-08-30T14:30:49.180Z,52.4
2022-08-30T14:32:32.573Z,52.2
2022-08-30T14:34:15.974Z,52.1
2022-08-30T14:35:59.376Z,51.7
2022-08-30T14:37:42.773Z,51.6
2022-08-30T14:39:26.174Z,51.4
2022-08-30T14:41:09.567Z,51.1
2022-08-30T14:42:52.961Z,50.8
2022-08-30T14:44:36.653Z,50.8
2022-08-30T14:46:20.088Z,50.8
2022-08-30T14:48:03.447Z,50.5
2022-08-30T14:49:46.857Z,50.5
2022-08-30T14:51:30.257Z,50.4
2022-08-30T14:53:13.647Z,50.1
2022-08-30T14:54:57.039Z,50.2
2022-08-30T14:56:40.454Z,50.2
2022-08-30T15:00:06.921Z,50
2022-08-30T15:01:50.326Z,50.2
2022-08-30T15:03:33.705Z,49.9
2022-08-30T15:05:17.106Z,49.7
2022-08-30T15:07:00.506Z,49.4
2022-08-30T15:08:43.921Z,49.2
2022-08-30T15:10:27.292Z,49.3
2022-08-30T15:12:10.703Z,49.4
2022-08-30T15:13:54.437Z,49.1
2022-08-30T15:15:37.810Z,49
2022-08-30T15:17:21.202Z,49.1
2022-08-30T15:19:04.585Z,49
2022-08-30T15:20:47.981Z,49
2022-08-30T15:22:31.386Z,48.3
2022-08-30T15:24:14.806Z,48.3
2022-08-30T15:27:41.235Z,48.3
2022-08-30T15:29:24.666Z,48.1
2022-08-30T15:31:08.063Z,48.4
2022-08-30T15:32:51.428Z,48.2
2022-08-30T15:34:34.849Z,48
2022-08-30T15:36:18.216Z,48
2022-08-30T15:38:01.635Z,48
2022-08-30T15:39:45.342Z,48.1
2022-08-30T15:41:28.724Z,48
2022-08-30T15:43:12.145Z,47.9
2022-08-30T15:44:55.512Z,47.9
2022-08-30T15:46:38.915Z,47.7
2022-08-30T15:48:22.343Z,47.6
2022-08-30T15:50:05.713Z,47.5
2022-08-30T15:53:32.197Z,47.3
2022-08-30T15:55:15.603Z,47.5
2022-08-30T15:56:58.962Z,47.5
2022-08-30T15:58:42.386Z,47.3
2022-08-30T16:00:25.804Z,47.3
2022-08-30T16:02:09.149Z,47.3
2022-08-30T16:03:52.593Z,47
2022-08-30T16:05:36.251Z,47
2022-08-30T16:07:19.660Z,47.1
2022-08-30T16:09:03.063Z,46.8
2022-08-30T16:10:46.461Z,46.9
2022-08-30T16:12:29.895Z,46.8
2022-08-30T16:14:13.226Z,46.9
2022-08-30T16:15:57.662Z,47
2022-08-30T16:17:40.345Z,47
2022-08-30T16:19:23.764Z,46.7
2022-08-30T16:21:07.149Z,46.9
2022-08-30T16:22:50.546Z,47.2
2022-08-30T16:24:33.960Z,47.4
2022-08-30T16:26:17.338Z,47.4
2022-08-30T16:28:00.716Z,47.6
2022-08-30T16:31:27.210Z,47.3
2022-08-30T16:33:10.585Z,47.2
2022-08-30T16:34:53.983Z,46.8
2022-08-30T16:36:37.379Z,46.8
2022-08-30T16:38:20.788Z,47.1
2022-08-30T16:40:04.187Z,47.2
2022-08-30T16:41:47.595Z,47
2022-08-30T16:45:14.045Z,46.9
2022-08-30T16:46:57.461Z,47.1
2022-08-30T16:48:40.848Z,47
2022-08-30T16:50:24.251Z,46.9
2022-08-30T16:53:51.026Z,47
2022-08-30T16:55:34.488Z,47
2022-08-30T16:57:18.166Z,47
2022-08-30T16:59:01.583Z,47.1
2022-08-30T17:00:44.959Z,46.9
2022-08-30T17:02:28.325Z,46.9
2022-08-30T17:04:11.741Z,46.9
2022-08-30T17:05:55.156Z,46.9
2022-08-30T17:07:38.528Z,46.9
2022-08-30T17:11:05.013Z,47.1
2022-08-30T17:12:48.370Z,47.1
2022-08-30T17:14:31.792Z,47.1
2022-08-30T17:16:15.177Z,47.2
2022-08-30T17:17:58.576Z,47.2
2022-08-30T17:19:41.957Z,47.3
2022-08-30T17:21:25.413Z,47.2
2022-08-30T17:26:34.602Z,47.4
2022-08-30T17:28:18.003Z,47.4
2022-08-30T17:30:01.400Z,47.3
2022-08-30T17:31:44.805Z,47.4
2022-08-30T17:33:28.189Z,47.3
2022-08-30T17:35:11.699Z,47.4
2022-08-30T17:36:54.983Z,47.6
2022-08-30T17:40:21.459Z,48.4
2022-08-30T17:42:04.901Z,48.8
2022-08-30T17:43:48.301Z,49
2022-08-30T17:45:31.665Z,49.3
2022-08-30T17:47:15.063Z,49.5
2022-08-30T17:48:58.454Z,49.8
2022-08-30T17:50:41.866Z,50
2022-08-30T17:54:08.311Z,50.2
2022-08-30T17:55:51.756Z,50.5
2022-08-30T17:57:35.163Z,50.6
2022-08-30T17:59:18.517Z,50.7
2022-08-30T18:01:01.915Z,50.7
2022-08-30T18:02:45.348Z,50.8
2022-08-30T18:04:28.758Z,50.9
2022-08-30T18:09:37.964Z,51
2022-08-30T18:11:21.342Z,51.1
2022-08-30T18:13:04.727Z,51
2022-08-30T18:14:48.121Z,51
2022-08-30T18:16:31.535Z,51.1
2022-08-30T18:18:14.954Z,51.2
2022-08-30T18:19:58.322Z,51.2
2022-08-30T18:23:24.788Z,51.4
2022-08-30T18:25:08.223Z,51.4
2022-08-30T18:26:51.627Z,51.4
2022-08-30T18:28:35.032Z,51.3
2022-08-30T18:30:18.404Z,51.5
2022-08-30T18:32:01.770Z,51.5
2022-08-30T18:33:45.194Z,51.5
2022-08-30T18:35:28.577Z,51.4
2022-08-30T18:38:55.052Z,51.3
2022-08-30T18:40:38.438Z,51.2
2022-08-30T18:42:21.871Z,51.2
2022-08-30T18:44:05.276Z,51.3
2022-08-30T18:45:48.668Z,51.4
2022-08-30T18:47:32.064Z,51.3
2022-08-30T18:49:15.465Z,51.5
2022-08-30T18:52:41.923Z,51.5
2022-08-30T18:54:25.337Z,51.5
2022-08-30T18:56:08.716Z,51.5
2022-08-30T18:57:53.994Z,51.5
2022-08-30T18:59:35.492Z,51.5
2022-08-30T19:01:18.924Z,51.5
2022-08-30T19:03:02.354Z,51.5
2022-08-30T19:06:28.805Z,51.4
2022-08-30T19:08:12.189Z,51.5
2022-08-30T19:09:55.579Z,51.4
2022-08-30T19:11:38.928Z,51.4
2022-08-30T19:13:22.335Z,51.4
2022-08-30T19:15:05.741Z,51.5
2022-08-30T19:16:49.147Z,51.5
2022-08-30T19:20:15.613Z,51.4
2022-08-30T19:21:58.999Z,51.4
2022-08-30T19:23:42.431Z,51.5
2022-08-30T19:25:25.837Z,51.5
2022-08-30T19:27:09.199Z,51.5
2022-08-30T19:28:52.605Z,51.8
2022-08-30T19:30:35.981Z,51.6
2022-08-30T19:34:02.481Z,51.5
2022-08-30T19:35:45.854Z,51.5
2022-08-30T19:37:29.282Z,51.6
2022-08-30T19:39:12.649Z,51.6
2022-08-30T19:40:56.052Z,51.6
2022-08-30T19:42:39.450Z,51.6
2022-08-30T19:44:22.859Z,51.6
2022-08-30T19:47:49.321Z,51.7
2022-08-30T19:49:32.752Z,51.6
2022-08-30T19:51:16.129Z,51.6
2022-08-30T19:52:59.521Z,51.7
2022-08-30T19:54:42.901Z,51.7
2022-08-30T19:56:26.303Z,51.7
2022-08-30T19:58:09.697Z,51.7
2022-08-30T20:03:18.942Z,51.7
2022-08-30T20:05:02.337Z,51.7
2022-08-30T20:06:45.738Z,51.7
2022-08-30T20:08:29.154Z,51.7
2022-08-30T20:10:12.539Z,51.7
2022-08-30T20:11:55.925Z,51.7
2022-08-30T20:13:39.342Z,51.7
2022-08-30T20:17:05.809Z,51.7
2022-08-30T20:18:49.199Z,51.7
2022-08-30T20:20:32.599Z,51.8
2022-08-30T20:22:16.000Z,51.8
2022-08-30T20:23:59.387Z,51.8
2022-08-30T20:25:42.790Z,51.8
2022-08-30T20:27:26.183Z,51.8
2022-08-30T20:30:52.652Z,51.9
2022-08-30T20:32:36.056Z,51.8
2022-08-30T20:34:19.440Z,51.8
2022-08-30T20:36:02.863Z,51.8
2022-08-30T20:37:46.242Z,51.7
2022-08-30T20:39:29.642Z,51.7
2022-08-30T20:41:13.032Z,51.7
2022-08-30T20:44:39.518Z,51.8
2022-08-30T20:46:22.916Z,51.8
2022-08-30T20:48:06.296Z,51.7
2022-08-30T20:49:49.717Z,51.7
2022-08-30T20:51:33.099Z,51.8
2022-08-30T20:53:16.685Z,51.8
2022-08-30T20:54:59.898Z,51.9
2022-08-30T21:00:09.141Z,51.8
2022-08-30T21:01:52.540Z,51.7
2022-08-30T21:03:35.929Z,51.8
2022-08-30T21:05:19.338Z,51.7
2022-08-30T21:07:02.735Z,51.7
2022-08-30T21:08:46.134Z,51.7
2022-08-30T21:10:29.531Z,51.7
2022-08-30T21:13:55.995Z,51.8
2022-08-30T21:15:39.394Z,51.8
2022-08-30T21:17:22.796Z,52
2022-08-30T21:19:06.187Z,51.6
2022-08-30T21:20:49.583Z,51.6
2022-08-30T21:22:32.974Z,51.6
2022-08-30T21:24:16.375Z,51.6
2022-08-30T21:27:42.846Z,51.8
2022-08-30T21:29:26.251Z,51.5
2022-08-30T21:31:09.652Z,51.3
2022-08-30T21:32:53.045Z,51.4
2022-08-30T21:34:36.446Z,51.4
2022-08-30T21:36:19.841Z,51.3
2022-08-30T21:38:03.239Z,51.2
2022-08-30T21:41:29.709Z,51.1
2022-08-30T21:43:13.108Z,51.2
2022-08-30T21:44:56.496Z,51.2
2022-08-30T21:46:39.896Z,51.2
2022-08-30T21:48:23.301Z,51.3
2022-08-30T21:50:06.700Z,51.3
2022-08-30T21:51:50.083Z,51.3
2022-08-30T21:55:16.571Z,51.4
2022-08-30T21:56:59.970Z,51.3
2022-08-30T21:58:43.367Z,51.4
2022-08-30T22:00:26.755Z,51.4
2022-08-30T22:02:10.147Z,51.4
2022-08-30T22:03:53.556Z,51.4
2022-08-30T22:05:36.941Z,51.4
2022-08-30T22:10:46.210Z,51.5
2022-08-30T22:12:29.610Z,51.5
2022-08-30T22:14:13.017Z,51.6
2022-08-30T22:15:56.384Z,51.6
2022-08-30T22:17:39.786Z,51.6
2022-08-30T22:19:23.195Z,51.6
2022-08-30T22:21:06.586Z,51.6
2022-08-30T22:24:33.070Z,51.6
2022-08-30T22:26:16.460Z,51.6
2022-08-30T22:27:59.845Z,51.7
2022-08-30T22:29:43.247Z,51.7
2022-08-30T22:31:26.643Z,51.7
2022-08-30T22:33:10.055Z,51.7
2022-08-30T22:34:53.450Z,51.7
2022-08-30T22:38:19.917Z,51.7
2022-08-30T22:40:03.324Z,51.7
2022-08-30T22:41:46.718Z,51.7
2022-08-30T22:43:30.092Z,51.8
2022-08-30T22:45:13.494Z,51.8
2022-08-30T22:46:56.890Z,51.8
2022-08-30T22:48:40.299Z,51.8
2022-08-30T22:52:06.774Z,51.8
2022-08-30T22:53:50.155Z,51.8
2022-08-30T22:55:33.567Z,51.8
2022-08-30T22:57:16.953Z,51.8
2022-08-30T22:59:00.415Z,51.9
2022-08-30T23:00:43.756Z,51.8
2022-08-30T23:02:27.153Z,51.8
2022-08-30T23:05:53.631Z,51.9
2022-08-30T23:07:37.034Z,51.9
2022-08-30T23:09:20.416Z,51.9
2022-08-30T23:11:03.814Z,51.9
2022-08-30T23:12:47.219Z,51.9
2022-08-30T23:14:30.607Z,51.9
2022-08-30T23:16:14.008Z,51.9
2022-08-30T23:19:40.490Z,51.9
2022-08-30T23:21:23.873Z,51.9
2022-08-30T23:23:07.272Z,51.9
2022-08-30T23:24:50.691Z,51.9
2022-08-30T23:26:34.091Z,51.9
2022-08-30T23:28:17.454Z,51.9
2022-08-30T23:30:00.853Z,52
2022-08-30T23:33:27.327Z,52
2022-08-30T23:35:10.728Z,52.1
2022-08-30T23:36:54.123Z,52
2022-08-30T23:38:37.527Z,52
2022-08-30T23:40:20.928Z,52
2022-08-30T23:42:04.326Z,52
2022-08-30T23:43:47.729Z,52
2022-08-30T23:47:14.196Z,52.1
2022-08-30T23:48:57.582Z,52.1
2022-08-30T23:50:40.984Z,52.1
2022-08-30T23:52:24.376Z,52.1
2022-08-30T23:54:07.778Z,52.1
2022-08-30T23:55:51.169Z,52.1
2022-08-30T23:57:34.559Z,52.1
2022-08-30T23:59:17.958Z,52.1
